createdAt,value
2023-04-02T00:05:34.607Z,100770.63
2023-04-02T00:15:40.466Z,100786.00
2023-04-02T00:25:45.778Z,100785.44
2023-04-02T00:35:52.139Z,100811.56
2023-04-02T00:45:57.986Z,100827.06
2023-04-02T00:56:04.389Z,100844.22
2023-04-02T01:06:11.560Z,100861.69
2023-04-02T01:16:24.772Z,100880.66
2023-04-02T01:26:54.664Z,100894.88
2023-04-02T01:37:22.275Z,100909.69
2023-04-02T01:47:28.782Z,100923.69
2023-04-02T01:57:33.589Z,100942.38
2023-04-02T02:07:36.746Z,100970.34
2023-04-02T02:17:41.396Z,100985.91
2023-04-02T02:27:54.238Z,101001.38
2023-04-02T02:38:07.470Z,101006.88
2023-04-02T02:48:14.917Z,101044.34
2023-04-02T02:58:23.550Z,101050.56
2023-04-02T03:08:44.476Z,101069.47
2023-04-02T03:18:58.578Z,101092.66
2023-04-02T03:29:06.176Z,101130.25
2023-04-02T03:39:19.151Z,101140.25
2023-04-02T03:49:32.243Z,101168.56
2023-04-02T03:59:43.888Z,101188.28
2023-04-02T04:09:54.164Z,101193.31
2023-04-02T04:20:08.778Z,101225.72
2023-04-02T04:30:20.994Z,101247.31
2023-04-02T04:40:29.805Z,101258.16
2023-04-02T04:50:38.186Z,101282.09
2023-04-02T05:00:52.086Z,101321.84
2023-04-02T05:11:00.503Z,101333.41
2023-04-02T05:21:15.545Z,101348.84
2023-04-02T05:31:23.541Z,101359.22
2023-04-02T05:41:32.311Z,101378.91
2023-04-02T05:51:44.121Z,101395.50
2023-04-02T06:01:55.789Z,101423.69
2023-04-02T06:12:13.472Z,101439.13
2023-04-02T06:22:28.674Z,101474.28
2023-04-02T06:32:34.647Z,101494.63
2023-04-02T06:42:43.208Z,101511.91
2023-04-02T06:53:22.220Z,101548.16
2023-04-02T07:03:29.684Z,101566.44
2023-04-02T07:13:35.588Z,101603.91
2023-04-02T07:23:40.531Z,101624.69
2023-04-02T07:33:44.037Z,101637.25
2023-04-02T07:43:49.118Z,101651.44
2023-04-02T07:53:56.174Z,101655.56
2023-04-02T08:04:01.000Z,101688.59
2023-04-02T08:14:04.030Z,101700.53
2023-04-02T08:24:08.934Z,101722.69
2023-04-02T08:34:11.883Z,101744.22
2023-04-02T08:44:25.841Z,101769.13
2023-04-02T08:54:31.745Z,101786.88
2023-04-02T09:04:37.046Z,101813.31
2023-04-02T09:14:44.138Z,101828.75
2023-04-02T09:24:53.090Z,101841.47
2023-04-02T09:35:24.518Z,101865.09
2023-04-02T09:45:31.462Z,101878.84
2023-04-02T09:55:34.932Z,101895.69
2023-04-02T10:05:41.162Z,101920.09
2023-04-02T10:15:51.840Z,101926.31
2023-04-02T10:26:01.777Z,101931.59
2023-04-02T10:36:12.361Z,101951.75
2023-04-02T10:46:25.336Z,101968.31
2023-04-02T10:56:40.726Z,101981.41
2023-04-02T11:07:07.307Z,101996.34
2023-04-02T11:17:16.757Z,102009.13
2023-04-02T11:27:27.580Z,102033.91
2023-04-02T11:37:35.095Z,102047.94
2023-04-02T11:47:39.813Z,102057.81
2023-04-02T11:57:57.296Z,102074.69
2023-04-02T12:08:25.113Z,102091.97
2023-04-02T12:18:28.338Z,102108.72
2023-04-02T12:28:33.911Z,102127.13
2023-04-02T12:38:44.887Z,102139.88
2023-04-02T12:48:49.399Z,102147.28
2023-04-02T12:58:57.167Z,102144.97
2023-04-02T13:09:03.681Z,102149.50
2023-04-02T13:19:37.099Z,102147.69
2023-04-02T13:29:42.073Z,102152.28
2023-04-02T13:39:44.933Z,102152.47
2023-04-02T13:49:49.277Z,102155.94
2023-04-02T13:59:52.224Z,102180.41
2023-04-02T14:10:10.289Z,102171.84
2023-04-02T14:20:26.479Z,102190.53
2023-04-02T14:30:43.167Z,102199.44
2023-04-02T14:40:51.691Z,102199.88
2023-04-02T14:51:01.015Z,102206.03
2023-04-02T15:01:13.797Z,102217.28
2023-04-02T15:11:22.647Z,102238.56
2023-04-02T15:21:57.569Z,102220.38
2023-04-02T15:32:13.436Z,102230.28
2023-04-02T15:42:21.286Z,102235.06
2023-04-02T15:52:34.360Z,102239.44
2023-04-02T16:03:02.698Z,102254.63
2023-04-02T16:13:16.825Z,102261.25
2023-04-02T16:23:24.614Z,102279.13
2023-04-02T16:33:41.188Z,102282.59
2023-04-02T16:43:54.641Z,102305.56
2023-04-02T16:54:04.004Z,102309.41
2023-04-02T17:04:23.442Z,102324.16
2023-04-02T17:14:33.168Z,102334.22
2023-04-02T17:24:42.475Z,102352.72
2023-04-02T17:34:47.239Z,102361.09
2023-04-02T17:45:16.242Z,102378.75
2023-04-02T17:55:30.732Z,102392.56
2023-04-02T18:05:40.323Z,102404.28
2023-04-02T18:16:05.029Z,102420.75
2023-04-02T18:26:16.077Z,102436.34
2023-04-02T18:36:28.817Z,102461.59
2023-04-02T18:46:40.749Z,102467.06
2023-04-02T18:56:46.072Z,102490.69
2023-04-02T19:06:54.029Z,102512.38
2023-04-02T19:17:03.868Z,102524.56
2023-04-02T19:27:14.162Z,102531.13
2023-04-02T19:37:27.227Z,102529.94
2023-04-02T19:47:30.662Z,102530.47
2023-04-02T19:57:35.457Z,102535.47
2023-04-02T20:07:38.880Z,102543.72
2023-04-02T20:17:43.308Z,102541.25
2023-04-02T20:27:46.374Z,102559.47
2023-04-02T20:37:50.726Z,102568.09
2023-04-02T20:47:53.736Z,102571.13
2023-04-02T20:57:58.208Z,102578.28
2023-04-02T21:08:01.252Z,102600.53
2023-04-02T21:18:05.965Z,102603.28
2023-04-02T21:28:08.988Z,102614.84
2023-04-02T21:38:13.378Z,102624.28
2023-04-02T21:48:16.316Z,102625.63
2023-04-02T21:58:20.989Z,102619.00
2023-04-02T22:08:24.024Z,102627.38
2023-04-02T22:18:28.384Z,102631.63
2023-04-02T22:28:31.622Z,102640.09
2023-04-02T22:38:36.745Z,102647.16
2023-04-02T22:48:40.573Z,102645.66
2023-04-02T22:58:45.800Z,102647.06
2023-04-02T23:08:49.139Z,102651.63
2023-04-02T23:18:53.728Z,102649.66
2023-04-02T23:28:56.677Z,102657.44
2023-04-02T23:39:04.185Z,102658.63
2023-04-02T23:49:07.264Z,102663.28
2023-04-02T23:59:11.684Z,102659.84
